Time;durP1;ratioP1;P1;durP2;ratioP2;P2;SDS_P1;SDS_P2;PMS_P1;PMS_P2;Temp;Humidity;BMP_temperature;BMP_pressure;BME280_temperature;BME280_humidity;BME280_pressure;Samples;Min_cycle;Max_cycle;Signal;HPM_P1;HPM_P2
2023/09/15 00:01:30;;;;;;;14.10;3.67;;;;;;;15.86;66.64;100323.78;5088309;28;20420;-79
2023/09/15 00:03:55;;;;;;;8.15;4.43;;;;;;;15.83;66.72;100325.16;5089301;28;20081;-80
2023/09/15 00:06:20;;;;;;;9.02;3.63;;;;;;;15.82;66.76;100318.03;5089842;28;20519;-80
2023/09/15 00:08:45;;;;;;;9.13;3.53;;;;;;;15.86;66.58;100323.78;5089806;28;20119;-79
2023/09/15 00:11:15;;;;;;;8.33;3.40;;;;;;;15.84;66.48;100320.50;5088310;28;20084;-80
2023/09/15 00:13:40;;;;;;;7.40;3.25;;;;;;;15.84;66.20;100320.50;5086921;28;20324;-78
2023/09/15 00:16:06;;;;;;;14.13;3.83;;;;;;;15.84;66.27;100317.75;5089452;28;20111;-78
2023/09/15 00:18:31;;;;;;;8.43;3.55;;;;;;;15.81;66.44;100321.88;5088831;28;20764;-79
2023/09/15 00:20:56;;;;;;;7.35;3.65;;;;;;;15.79;66.49;100318.59;5089845;28;20497;-79
2023/09/15 00:23:22;;;;;;;10.97;3.80;;;;;;;15.77;66.00;100315.31;5089381;28;20031;-81
2023/09/15 00:25:47;;;;;;;8.63;3.97;;;;;;;15.73;66.52;100317.81;5089660;28;20245;-79
2023/09/15 00:28:13;;;;;;;11.00;3.63;;;;;;;15.66;66.48;100311.84;5089539;28;20118;-79
2023/09/15 00:30:39;;;;;;;9.07;4.03;;;;;;;15.71;66.58;100310.94;5089557;28;20032;-80
2023/09/15 00:33:04;;;;;;;9.88;3.28;;;;;;;15.64;66.58;100305.81;5090310;28;20028;-79
2023/09/15 00:35:30;;;;;;;9.05;3.15;;;;;;;15.63;66.51;100310.47;5089592;28;21094;-80
2023/09/15 00:37:56;;;;;;;7.63;2.75;;;;;;;15.63;66.62;100309.63;5090958;28;20789;-80
2023/09/15 00:40:22;;;;;;;7.85;3.55;;;;;;;15.63;66.68;100304.16;5089847;28;20119;-81
2023/09/15 00:42:49;;;;;;;8.80;3.92;;;;;;;15.64;66.89;100305.81;5089210;28;20092;-80
2023/09/15 00:45:18;;;;;;;7.30;3.40;;;;;;;15.72;66.54;100299.66;5087769;28;20036;-79
2023/09/15 00:47:46;;;;;;;7.63;3.85;;;;;;;15.68;66.53;100306.84;5088021;28;20770;-79
2023/09/15 00:50:17;;;;;;;9.65;4.55;;;;;;;15.69;66.46;100305.75;5088322;28;20493;-78
2023/09/15 00:52:45;;;;;;;9.15;3.78;;;;;;;15.69;66.82;100300.25;5089412;28;20047;-78
2023/09/15 00:55:13;;;;;;;8.25;3.40;;;;;;;15.73;66.44;100300.50;5087999;28;20034;-78
2023/09/15 00:57:39;;;;;;;10.80;3.30;;;;;;;15.73;66.18;100298.56;5083968;28;20052;-79
2023/09/15 01:00:13;;;;;;;7.53;3.08;;;;;;;15.70;66.45;100293.63;5088737;28;20060;-79
2023/09/15 01:02:41;;;;;;;8.52;3.58;;;;;;;15.66;66.50;100291.75;5087853;28;20078;-77
2023/09/15 01:05:07;;;;;;;7.05;3.45;;;;;;;15.60;66.42;100288.25;5088439;28;20115;-79
2023/09/15 01:07:34;;;;;;;8.95;3.25;;;;;;;15.60;66.45;100288.25;5087745;28;20174;-77
2023/09/15 01:10:00;;;;;;;7.68;3.65;;;;;;;15.55;66.46;100291.00;5087436;28;20526;-78
2023/09/15 01:12:25;;;;;;;6.43;3.70;;;;;;;15.48;66.55;100281.16;5087865;28;20404;-80
2023/09/15 01:14:51;;;;;;;19.42;4.07;;;;;;;15.48;66.37;100281.16;5086036;28;20047;-78
2023/09/15 01:17:23;;;;;;;6.97;3.10;;;;;;;15.47;66.19;100271.28;5087698;28;20070;-78
2023/09/15 01:20:14;;;;;;;9.05;3.15;;;;;;;15.48;66.55;100275.66;5086792;28;20043;-79
2023/09/15 01:23:00;;;;;;;9.73;4.45;;;;;;;15.47;66.44;100273.22;5083978;28;20042;-79
2023/09/15 01:25:39;;;;;;;7.38;3.15;;;;;;;15.49;66.40;100265.50;5086540;28;20036;-79
2023/09/15 01:28:29;;;;;;;9.95;3.28;;;;;;;15.46;66.27;100268.84;5087399;28;20040;-79
2023/09/15 01:30:55;;;;;;;11.30;3.45;;;;;;;15.43;66.59;100261.97;5088522;28;20115;-79
2023/09/15 01:33:21;;;;;;;8.77;3.55;;;;;;;15.45;66.72;100261.69;5087980;28;20122;-80
2023/09/15 01:35:47;;;;;;;7.63;3.22;;;;;;;15.44;66.42;100271.84;5087993;28;20536;-80
2023/09/15 01:38:12;;;;;;;6.68;3.22;;;;;;;15.42;66.76;100265.81;5087293;28;20032;-79
2023/09/15 01:40:40;;;;;;;8.05;3.33;;;;;;;15.39;66.56;100258.16;5088052;28;20035;-80
2023/09/15 01:43:05;;;;;;;7.78;3.00;;;;;;;15.36;66.50;100255.97;5084357;28;20161;-81
2023/09/15 01:45:31;;;;;;;9.07;3.63;;;;;;;15.36;66.68;100256.78;5087006;28;20027;-80
2023/09/15 01:47:57;;;;;;;8.48;3.42;;;;;;;15.35;66.31;100260.66;5087072;28;20103;-80
2023/09/15 01:50:25;;;;;;;5.47;2.70;;;;;;;15.34;66.91;100266.41;5083131;28;20597;-79
2023/09/15 01:52:50;;;;;;;16.30;4.97;;;;;;;15.31;66.79;100264.25;5083350;28;20032;-80
2023/09/15 01:55:16;;;;;;;9.02;3.60;;;;;;;15.31;66.48;100262.34;5083882;28;20077;-78
2023/09/15 01:57:42;;;;;;;8.93;3.22;;;;;;;15.34;66.79;100269.16;5083014;28;20028;-78
2023/09/15 02:00:09;;;;;;;8.88;3.83;;;;;;;15.35;66.51;100260.66;5087068;28;20035;-77
2023/09/15 02:02:34;;;;;;;8.85;3.55;;;;;;;15.36;66.32;100262.28;5087713;28;20739;-77
2023/09/15 02:04:59;;;;;;;7.68;3.53;;;;;;;15.36;66.58;100255.97;5086811;28;20039;-77
2023/09/15 02:07:25;;;;;;;6.93;2.75;;;;;;;15.28;66.72;100263.72;5087886;28;20047;-78
2023/09/15 02:09:50;;;;;;;8.73;3.60;;;;;;;15.31;67.11;100256.00;5088217;28;20024;-79
2023/09/15 02:12:16;;;;;;;11.98;4.10;;;;;;;15.33;66.60;100267.53;5088475;28;20289;-78
2023/09/15 02:14:43;;;;;;;7.50;3.63;;;;;;;15.26;66.74;100268.66;5087142;28;20093;-80
2023/09/15 02:17:11;;;;;;;8.25;3.85;;;;;;;15.25;66.56;100264.28;5085712;28;20572;-72
2023/09/15 02:19:36;;;;;;;8.98;3.20;;;;;;;15.22;66.93;100264.84;5084407;28;20031;-73
2023/09/15 02:22:02;;;;;;;8.38;3.03;;;;;;;15.25;66.98;100258.81;5084055;28;20050;-71
2023/09/15 02:24:27;;;;;;;10.27;3.95;;;;;;;15.24;66.51;100254.41;5085021;28;20505;-72
2023/09/15 02:26:52;;;;;;;6.90;3.15;;;;;;;15.14;66.43;100255.28;5085143;28;20051;-73
2023/09/15 02:29:17;;;;;;;9.03;2.90;;;;;;;15.14;66.31;100248.97;5085162;28;20024;-73
2023/09/15 02:31:43;;;;;;;7.90;3.00;;;;;;;15.09;67.09;100251.75;5084826;28;20280;-71
2023/09/15 02:34:08;;;;;;;11.13;3.10;;;;;;;15.08;66.77;100250.09;5084743;28;20650;-72
2023/09/15 02:36:33;;;;;;;7.65;2.90;;;;;;;14.99;66.63;100250.69;5086180;28;20256;-74
2023/09/15 02:38:59;;;;;;;6.23;2.77;;;;;;;15.07;66.47;100248.47;5084225;28;20035;-74
2023/09/15 02:41:24;;;;;;;5.75;2.33;;;;;;;15.02;66.70;100244.66;5084587;28;20300;-73
2023/09/15 02:43:49;;;;;;;8.85;3.35;;;;;;;14.92;66.51;100240.03;5085006;28;20497;-74
2023/09/15 02:46:14;;;;;;;16.45;2.83;;;;;;;14.96;66.92;100248.53;5084339;28;20107;-73
2023/09/15 02:48:43;;;;;;;7.13;3.35;;;;;;;14.99;66.74;100242.44;5084705;28;20036;-74
2023/09/15 02:51:08;;;;;;;9.15;3.28;;;;;;;14.97;66.70;100244.66;5084576;28;20040;-74
2023/09/15 02:53:33;;;;;;;7.05;2.28;;;;;;;14.96;66.87;100242.19;5084425;28;20051;-74
2023/09/15 02:56:00;;;;;;;7.57;3.53;;;;;;;14.95;67.04;100244.13;5084065;28;20036;-73
2023/09/15 02:58:27;;;;;;;8.38;2.95;;;;;;;15.01;66.64;100245.72;5084718;28;20043;-75
2023/09/15 03:00:52;;;;;;;6.90;3.15;;;;;;;15.05;66.66;100241.31;5084415;28;20048;-74
2023/09/15 03:03:19;;;;;;;10.43;2.60;;;;;;;15.01;66.48;100243.00;5084324;28;20092;-74
2023/09/15 03:05:45;;;;;;;6.13;2.83;;;;;;;15.02;66.81;100241.91;5084035;28;20039;-73
2023/09/15 03:08:11;;;;;;;6.72;3.35;;;;;;;15.07;66.56;100243.81;5084398;28;20078;-74
2023/09/15 03:10:36;;;;;;;7.00;2.95;;;;;;;15.12;66.23;100235.53;5083669;28;20040;-74
2023/09/15 03:13:04;;;;;;;7.63;3.15;;;;;;;15.11;66.33;100233.88;5084238;28;20039;-73
2023/09/15 03:15:29;;;;;;;9.07;2.35;;;;;;;15.05;66.52;100230.34;5082955;28;20097;-74
2023/09/15 03:17:54;;;;;;;5.15;2.33;;;;;;;15.09;66.48;100227.03;5083453;28;20032;-74
2023/09/15 03:20:21;;;;;;;6.17;2.70;;;;;;;15.08;66.44;100228.13;5083353;28;20074;-73
2023/09/15 03:22:46;;;;;;;6.70;2.78;;;;;;;15.03;66.44;100221.56;5082451;28;20348;-74
2023/09/15 03:25:14;;;;;;;5.35;2.38;;;;;;;15.08;66.66;100225.38;5083662;28;20030;-80
2023/09/15 03:27:39;;;;;;;5.68;2.40;;;;;;;15.12;66.77;100227.28;5084020;28;20032;-79
2023/09/15 03:30:06;;;;;;;6.63;3.17;;;;;;;15.07;66.54;100221.00;5083596;28;20085;-80
2023/09/15 03:32:32;;;;;;;4.22;2.30;;;;;;;15.04;66.80;100217.72;5084707;28;20078;-79
2023/09/15 03:34:57;;;;;;;9.25;2.60;;;;;;;15.01;66.48;100218.28;5083544;28;20028;-80
2023/09/15 03:37:22;;;;;;;11.63;3.13;;;;;;;14.95;66.83;100213.91;5081769;28;20040;-79
2023/09/15 03:39:47;;;;;;;9.75;3.15;;;;;;;14.90;66.73;100217.53;5083991;28;20043;-79
2023/09/15 03:42:13;;;;;;;8.10;2.67;;;;;;;14.86;66.95;100219.22;5085124;28;20461;-79
2023/09/15 03:44:38;;;;;;;6.93;2.80;;;;;;;14.92;66.63;100214.50;5087431;28;20276;-80
2023/09/15 03:47:03;;;;;;;8.57;3.70;;;;;;;14.92;66.61;100209.00;5090412;28;20040;-78
2023/09/15 03:49:29;;;;;;;9.63;3.38;;;;;;;14.92;66.74;100211.75;5090088;28;20631;-79
2023/09/15 03:51:54;;;;;;;11.57;4.63;;;;;;;14.90;67.06;100211.22;5089488;28;20044;-78
2023/09/15 03:54:19;;;;;;;9.37;3.83;;;;;;;14.87;67.04;100207.09;5088860;28;20119;-78
2023/09/15 03:56:44;;;;;;;7.13;3.27;;;;;;;14.89;67.00;100198.63;5089875;28;20769;-79
2023/09/15 03:59:10;;;;;;;7.30;3.60;;;;;;;14.87;67.21;100201.63;5089365;28;20275;-78
2023/09/15 04:01:35;;;;;;;14.33;3.60;;;;;;;14.85;66.60;100203.81;5089197;28;20268;-78
2023/09/15 04:04:02;;;;;;;11.17;3.60;;;;;;;14.76;66.98;100200.84;5089045;28;20621;-78
2023/09/15 04:06:28;;;;;;;11.38;3.83;;;;;;;14.74;66.93;100197.56;5089629;28;20277;-78
2023/09/15 04:08:53;;;;;;;5.80;3.15;;;;;;;14.69;66.59;100205.78;5089835;28;20121;-80
2023/09/15 04:11:18;;;;;;;9.57;3.87;;;;;;;14.65;66.94;100207.47;5090194;28;20043;-80
2023/09/15 04:13:44;;;;;;;7.60;3.20;;;;;;;14.56;66.97;100202.56;5089084;28;20286;-79
2023/09/15 04:16:09;;;;;;;7.00;3.23;;;;;;;14.54;67.05;100209.44;5089508;28;20841;-79
2023/09/15 04:18:34;;;;;;;8.73;2.90;;;;;;;14.53;67.54;100207.78;5089717;28;20317;-79
2023/09/15 04:21:00;;;;;;;7.97;3.30;;;;;;;14.50;66.79;100208.38;5088743;28;20272;-79
2023/09/15 04:23:25;;;;;;;9.52;5.00;;;;;;;14.47;66.98;100215.22;5088891;28;20513;-80
2023/09/15 04:25:50;;;;;;;10.82;4.28;;;;;;;14.47;67.10;100213.31;5088798;28;20047;-78
2023/09/15 04:28:16;;;;;;;9.70;3.87;;;;;;;14.46;67.17;100216.34;5089503;28;20060;-78
2023/09/15 04:30:42;;;;;;;8.43;3.67;;;;;;;14.40;67.07;100215.50;5085185;28;20256;-80
2023/09/15 04:33:07;;;;;;;8.38;3.53;;;;;;;14.40;67.52;100207.28;5085289;28;20115;-79
2023/09/15 04:35:32;;;;;;;8.45;3.22;;;;;;;14.42;67.52;100218.00;5085077;28;20115;-79
2023/09/15 04:37:58;;;;;;;7.63;3.97;;;;;;;14.45;67.19;100222.91;5087463;28;20982;-79
2023/09/15 04:40:24;;;;;;;8.40;4.15;;;;;;;14.41;67.31;100216.34;5089312;28;20260;-79
2023/09/15 04:42:50;;;;;;;11.63;4.15;;;;;;;14.39;67.36;100218.53;5088764;28;20038;-80
2023/09/15 04:45:15;;;;;;;11.93;4.50;;;;;;;14.38;67.09;100212.22;5088893;28;20478;-74
2023/09/15 04:47:40;;;;;;;11.75;3.22;;;;;;;14.33;67.55;100220.47;5085834;28;20070;-73
2023/09/15 04:50:07;;;;;;;11.50;3.35;;;;;;;14.33;67.78;100221.31;5085714;28;20036;-74
2023/09/15 04:52:32;;;;;;;9.05;3.08;;;;;;;14.32;67.52;100216.13;5085546;28;20035;-72
2023/09/15 04:54:58;;;;;;;8.45;3.42;;;;;;;14.34;67.74;100211.97;5084394;28;20044;-73
2023/09/15 04:57:24;;;;;;;8.80;3.30;;;;;;;14.36;67.32;100212.50;5085511;28;20040;-72
2023/09/15 04:59:53;;;;;;;7.75;3.88;;;;;;;14.39;67.73;100213.06;5085869;28;20040;-73
2023/09/15 05:02:25;;;;;;;7.45;3.75;;;;;;;14.40;67.86;100211.97;5086690;28;20466;-73
2023/09/15 05:04:52;;;;;;;7.78;3.25;;;;;;;14.39;67.31;100208.41;5085777;28;20040;-73
2023/09/15 05:07:18;;;;;;;12.35;3.95;;;;;;;14.35;68.13;100213.63;5085901;28;20052;-73
2023/09/15 05:09:43;;;;;;;7.95;3.60;;;;;;;14.40;67.94;100220.19;5085139;28;20047;-75
2023/09/15 05:12:09;;;;;;;7.70;3.97;;;;;;;14.42;67.63;100218.00;5085121;28;20591;-74
2023/09/15 05:14:34;;;;;;;11.27;4.27;;;;;;;14.42;68.12;100207.03;5085149;28;20044;-73
2023/09/15 05:16:59;;;;;;;11.68;3.85;;;;;;;14.48;67.78;100208.66;5086284;28;20252;-73
2023/09/15 05:19:25;;;;;;;8.23;3.17;;;;;;;14.48;67.46;100222.38;5085784;28;20689;-73
2023/09/15 05:21:50;;;;;;;7.65;3.58;;;;;;;14.45;67.91;100212.78;5085552;28;21241;-72
2023/09/15 05:24:16;;;;;;;9.68;3.47;;;;;;;14.41;68.07;100211.69;5085228;28;20068;-72
2023/09/15 05:26:41;;;;;;;8.18;3.53;;;;;;;14.51;67.95;100216.31;5084895;28;20032;-72
2023/09/15 05:29:06;;;;;;;11.13;3.67;;;;;;;14.56;68.05;100210.00;5084402;28;20055;-73
2023/09/15 05:31:31;;;;;;;14.40;4.30;;;;;;;14.61;68.36;100209.94;5084576;28;20287;-73
2023/09/15 05:33:57;;;;;;;12.03;3.60;;;;;;;14.69;68.05;100206.63;5084867;28;20244;-74
2023/09/15 05:36:23;;;;;;;9.05;3.30;;;;;;;14.74;68.08;100203.03;5085424;28;21011;-72
2023/09/15 05:38:49;;;;;;;9.57;3.13;;;;;;;14.74;67.85;100205.78;5084853;28;20028;-73
2023/09/15 05:41:14;;;;;;;8.57;2.97;;;;;;;14.81;68.16;100209.03;5085051;28;20031;-73
2023/09/15 05:43:40;;;;;;;11.52;3.80;;;;;;;14.86;68.57;100207.41;5084194;28;20497;-73
2023/09/15 05:46:05;;;;;;;7.78;3.17;;;;;;;14.87;68.12;100209.84;5084141;28;20032;-74
2023/09/15 05:48:31;;;;;;;8.15;3.17;;;;;;;14.92;68.03;100215.34;5084702;28;20517;-73
2023/09/15 05:50:56;;;;;;;9.00;3.77;;;;;;;14.90;67.88;100213.97;5084427;28;20036;-74
2023/09/15 05:53:21;;;;;;;6.00;2.55;;;;;;;14.84;68.31;100212.34;5083626;28;20881;-73
2023/09/15 05:55:47;;;;;;;9.43;3.45;;;;;;;14.83;68.45;100219.75;5083829;28;20082;-74
2023/09/15 05:58:13;;;;;;;12.65;3.63;;;;;;;14.87;68.12;100212.59;5084526;28;20031;-73
2023/09/15 06:00:38;;;;;;;6.95;2.92;;;;;;;14.91;68.59;100212.84;5084734;28;20028;-73
2023/09/15 06:03:04;;;;;;;7.45;2.67;;;;;;;14.92;68.42;100212.59;5084688;28;20505;-73
2023/09/15 06:05:29;;;;;;;11.05;3.42;;;;;;;14.94;68.67;100218.63;5084745;28;20035;-74
2023/09/15 06:07:54;;;;;;;8.65;4.00;;;;;;;15.01;68.59;100218.28;5084774;28;20127;-72
2023/09/15 06:10:20;;;;;;;9.15;4.78;;;;;;;15.05;68.43;100224.06;5084169;28;20079;-72
2023/09/15 06:12:49;;;;;;;11.02;5.65;;;;;;;15.08;68.56;100217.16;5084363;28;20047;-73
2023/09/15 06:15:14;;;;;;;11.23;5.32;;;;;;;15.15;68.47;100217.66;5083425;28;20046;-74
2023/09/15 06:17:40;;;;;;;11.80;6.00;;;;;;;15.16;68.61;100219.28;5084577;28;20031;-73
2023/09/15 06:20:06;;;;;;;13.13;4.80;;;;;;;15.20;68.65;100216.78;5084085;28;20058;-73
2023/09/15 06:22:33;;;;;;;11.52;6.20;;;;;;;15.21;68.58;100213.78;5084839;28;20063;-73
2023/09/15 06:24:59;;;;;;;12.40;6.00;;;;;;;15.23;68.78;100218.97;5082239;28;20034;-74
2023/09/15 06:27:24;;;;;;;11.52;4.57;;;;;;;15.28;68.33;100217.03;5084594;28;20037;-72
2023/09/15 06:29:51;;;;;;;10.60;4.55;;;;;;;15.27;68.73;100214.56;5085080;28;20028;-73
2023/09/15 06:32:17;;;;;;;13.35;5.78;;;;;;;15.21;69.10;100212.97;5083743;28;20036;-73
2023/09/15 06:34:43;;;;;;;8.98;5.38;;;;;;;15.31;69.24;100212.06;5083182;28;20051;-73
2023/09/15 06:37:08;;;;;;;7.70;4.32;;;;;;;15.28;69.30;100217.03;5084236;28;20036;-73
2023/09/15 06:39:35;;;;;;;11.88;4.75;;;;;;;15.40;69.03;100210.34;5084181;28;20032;-73
2023/09/15 06:42:01;;;;;;;5.47;2.45;;;;;;;15.48;69.03;100203.41;5084327;28;20043;-73
2023/09/15 06:44:26;;;;;;;6.35;3.05;;;;;;;15.54;69.30;100198.72;5082987;28;20036;-74
2023/09/15 06:46:51;;;;;;;10.27;3.13;;;;;;;15.60;69.28;100208.53;5084102;28;20040;-73
2023/09/15 06:49:21;;;;;;;13.25;3.33;;;;;;;15.66;69.12;100210.16;5085110;28;20721;-74
2023/09/15 06:51:48;;;;;;;8.25;3.50;;;;;;;15.71;69.08;100212.84;5083863;28;20032;-73
2023/09/15 06:54:13;;;;;;;8.57;2.85;;;;;;;15.83;68.67;100209.69;5083461;28;20032;-73
2023/09/15 06:56:38;;;;;;;13.35;3.13;;;;;;;15.97;67.90;100204.34;5084522;28;21035;-74
2023/09/15 06:59:03;;;;;;;7.00;2.27;;;;;;;15.99;67.77;100201.28;5084078;28;20046;-73
2023/09/15 07:01:29;;;;;;;5.93;2.40;;;;;;;16.07;67.85;100197.13;5083912;28;20264;-75
2023/09/15 07:03:54;;;;;;;6.93;2.37;;;;;;;16.16;67.78;100200.06;5083513;28;20276;-73
2023/09/15 07:06:19;;;;;;;6.70;2.35;;;;;;;16.21;68.06;100187.06;5083555;28;20758;-74
2023/09/15 07:08:45;;;;;;;10.03;2.37;;;;;;;16.25;67.89;100189.25;5081941;28;20114;-75
2023/09/15 07:11:10;;;;;;;9.40;2.70;;;;;;;16.23;67.99;100192.28;5083018;28;20677;-76
2023/09/15 07:13:35;;;;;;;7.95;2.85;;;;;;;16.24;68.45;100193.91;5083028;28;20059;-77
2023/09/15 07:16:01;;;;;;;10.40;4.70;;;;;;;16.29;69.02;100193.84;5085289;28;20032;-76
2023/09/15 07:18:26;;;;;;;11.73;5.57;;;;;;;16.31;68.94;100190.81;5089897;28;20050;-76
2023/09/15 07:20:51;;;;;;;12.55;4.40;;;;;;;16.39;69.11;100195.69;5090782;28;20117;-79
2023/09/15 07:23:17;;;;;;;10.77;4.30;;;;;;;16.48;69.50;100200.50;5091077;28;20023;-77
2023/09/15 07:25:46;;;;;;;13.50;5.30;;;;;;;16.55;69.22;100200.97;5092119;28;20042;-77
2023/09/15 07:28:12;;;;;;;13.30;5.45;;;;;;;16.60;68.87;100202.84;5090050;28;20567;-80
2023/09/15 07:30:37;;;;;;;13.47;5.30;;;;;;;16.58;69.46;100205.88;5087391;28;20123;-79
2023/09/15 07:33:03;;;;;;;14.15;4.57;;;;;;;16.64;69.03;100204.72;5085296;28;20280;-80
2023/09/15 07:35:28;;;;;;;11.20;3.88;;;;;;;16.68;68.92;100208.50;5086115;28;20141;-79
2023/09/15 07:37:54;;;;;;;9.40;3.63;;;;;;;16.78;68.28;100196.53;5086126;28;20441;-79
2023/09/15 07:40:22;;;;;;;9.30;4.03;;;;;;;16.91;67.85;100197.75;5086314;28;20089;-80
2023/09/15 07:42:47;;;;;;;7.80;3.50;;;;;;;16.90;66.96;100190.59;5086266;28;20055;-78
2023/09/15 07:45:13;;;;;;;12.02;5.32;;;;;;;16.97;67.88;100183.88;5085636;28;20032;-78
2023/09/15 07:47:38;;;;;;;11.05;3.15;;;;;;;16.98;67.95;100188.31;5084365;28;20028;-79
2023/09/15 07:50:04;;;;;;;7.15;3.45;;;;;;;16.97;68.24;100195.72;5085474;28;20374;-78
2023/09/15 07:52:30;;;;;;;15.80;4.03;;;;;;;16.97;68.27;100184.72;5084119;28;20285;-81
2023/09/15 07:54:55;;;;;;;12.52;4.35;;;;;;;17.04;68.37;100187.09;5084716;28;20389;-80
2023/09/15 07:57:20;;;;;;;11.52;3.90;;;;;;;17.07;68.79;100180.16;5085687;28;20035;-79
2023/09/15 07:59:45;;;;;;;8.15;3.45;;;;;;;17.17;68.41;100171.78;5086426;28;21267;-80
2023/09/15 08:02:11;;;;;;;9.67;3.10;;;;;;;17.24;68.31;100177.75;5086959;28;20663;-78
2023/09/15 08:04:36;;;;;;;9.98;3.88;;;;;;;17.27;68.35;100168.03;5086952;28;20314;-79
2023/09/15 08:07:03;;;;;;;10.35;3.50;;;;;;;17.30;68.09;100170.22;5084266;28;20051;-77
2023/09/15 08:09:29;;;;;;;7.28;2.92;;;;;;;17.36;68.38;100170.94;5087382;28;20043;-76
2023/09/15 08:11:59;;;;;;;10.63;3.22;;;;;;;17.37;67.66;100167.88;5085681;28;20405;-76
2023/09/15 08:14:25;;;;;;;10.60;3.13;;;;;;;17.44;67.94;100169.44;5089629;28;20032;-77
2023/09/15 08:16:50;;;;;;;10.65;3.75;;;;;;;17.50;67.90;100168.22;5089214;28;20050;-82
2023/09/15 08:19:15;;;;;;;7.22;3.58;;;;;;;17.58;67.83;100167.53;5090938;28;20040;-83
2023/09/15 08:21:40;;;;;;;8.73;2.60;;;;;;;17.68;67.94;100173.97;5091564;28;20031;-81
2023/09/15 08:24:06;;;;;;;13.17;3.50;;;;;;;17.73;68.03;100168.38;5093202;28;20656;-80
2023/09/15 08:26:31;;;;;;;11.30;3.33;;;;;;;17.80;68.05;100171.56;5094433;28;20275;-81
2023/09/15 08:28:56;;;;;;;7.67;3.40;;;;;;;17.79;67.65;100171.84;5094942;28;20023;-81
2023/09/15 08:31:22;;;;;;;9.47;3.23;;;;;;;17.88;68.12;100166.47;5093502;28;20268;-81
2023/09/15 08:33:47;;;;;;;12.55;3.03;;;;;;;17.96;68.00;100168.50;5094149;28;20699;-80
2023/09/15 08:36:13;;;;;;;7.30;3.03;;;;;;;17.98;68.08;100169.00;5086777;28;20032;-81
2023/09/15 08:38:38;;;;;;;6.85;2.47;;;;;;;17.99;68.03;100172.59;5084797;28;20034;-81
2023/09/15 08:41:12;;;;;;;6.53;2.20;;;;;;;18.03;67.85;100173.63;5085496;28;20032;-81
2023/09/15 08:43:37;;;;;;;8.70;3.08;;;;;;;18.05;67.92;100174.97;5084530;28;20036;-82
2023/09/15 08:46:05;;;;;;;9.57;3.03;;;;;;;18.14;68.38;100182.53;5085714;28;20518;-81
2023/09/15 08:48:38;;;;;;;9.38;3.03;;;;;;;18.22;67.74;100173.56;5085232;28;20032;-84
2023/09/15 08:51:04;;;;;;;8.35;2.72;;;;;;;18.27;67.82;100170.69;5085086;28;20032;-83
2023/09/15 08:53:30;;;;;;;7.78;3.78;;;;;;;18.42;67.96;100171.50;5085028;28;20032;-83
2023/09/15 08:55:56;;;;;;;9.25;2.67;;;;;;;18.51;67.53;100164.13;5085250;28;20441;-82
2023/09/15 08:58:21;;;;;;;7.40;2.42;;;;;;;18.60;67.17;100157.88;5084743;28;20066;-82
2023/09/15 09:00:47;;;;;;;8.27;2.53;;;;;;;18.62;66.68;100166.66;5084903;28;20040;-81
2023/09/15 09:03:13;;;;;;;6.53;2.08;;;;;;;18.70;66.63;100165.94;5083193;28;20109;-82
2023/09/15 09:05:40;;;;;;;9.45;2.58;;;;;;;18.74;66.31;100164.19;5083060;28;20381;-81
2023/09/15 09:08:06;;;;;;;6.47;3.05;;;;;;;18.77;66.57;100155.25;5084640;28;20116;-82
2023/09/15 09:10:32;;;;;;;10.18;2.65;;;;;;;18.86;66.54;100160.06;5084550;28;20051;-83
2023/09/15 09:12:57;;;;;;;8.57;2.88;;;;;;;18.92;66.06;100158.81;5084915;28;20032;-83
2023/09/15 09:15:25;;;;;;;10.20;2.93;;;;;;;18.98;65.64;100152.03;5083847;28;20493;-86
2023/09/15 09:17:50;;;;;;;8.15;2.20;;;;;;;19.06;65.13;100152.44;5088242;28;20792;-82
2023/09/15 09:20:24;;;;;;;11.65;2.80;;;;;;;19.17;64.25;100159.38;5085170;28;20063;-83
2023/09/15 09:22:49;;;;;;;7.18;3.00;;;;;;;19.21;63.01;100154.84;5091862;28;20599;-83
2023/09/15 09:25:14;;;;;;;5.20;1.93;;;;;;;19.28;63.64;100159.13;5093476;28;20036;-79
2023/09/15 09:27:40;;;;;;;8.32;3.28;;;;;;;19.32;63.26;100155.38;5092922;28;20330;-80
2023/09/15 09:30:06;;;;;;;6.45;2.10;;;;;;;19.31;63.95;100150.19;5092909;28;20028;-76
2023/09/15 09:32:36;;;;;;;5.82;2.10;;;;;;;19.36;63.34;100147.31;5092489;28;20024;-79
2023/09/15 09:35:02;;;;;;;4.90;2.05;;;;;;;19.41;59.66;100138.88;5089272;28;20032;-77
2023/09/15 09:37:27;;;;;;;9.55;3.30;;;;;;;19.50;60.24;100140.88;5092790;28;20165;-76
2023/09/15 09:39:53;;;;;;;4.85;2.47;;;;;;;19.55;60.55;100141.56;5091720;28;20035;-80
2023/09/15 09:42:22;;;;;;;4.75;2.42;;;;;;;19.64;60.30;100138.84;5088488;28;20120;-75
2023/09/15 09:44:47;;;;;;;4.45;1.95;;;;;;;19.65;59.19;100137.69;5085023;28;20081;-74
2023/09/15 09:47:12;;;;;;;6.28;2.20;;;;;;;19.75;60.12;100139.38;5082993;28;20408;-74
2023/09/15 09:49:40;;;;;;;9.80;2.80;;;;;;;19.76;59.26;100134.66;5082280;28;20114;-74
2023/09/15 09:52:05;;;;;;;4.03;2.30;;;;;;;19.81;59.73;100140.06;5083483;28;20051;-73
2023/09/15 09:54:34;;;;;;;13.98;3.05;;;;;;;19.88;58.36;100148.72;5083019;28;20055;-73
2023/09/15 09:57:01;;;;;;;9.05;2.53;;;;;;;19.89;59.33;100139.25;5082670;28;20036;-76
2023/09/15 09:59:27;;;;;;;6.90;2.25;;;;;;;19.90;59.00;100149.22;5083046;28;20443;-73
2023/09/15 10:01:52;;;;;;;8.27;2.50;;;;;;;19.96;58.76;100136.03;5083033;28;20079;-74
2023/09/15 10:04:20;;;;;;;5.03;2.77;;;;;;;19.92;59.01;100138.66;5082551;28;20032;-75
2023/09/15 10:06:45;;;;;;;6.80;2.50;;;;;;;19.98;58.98;100132.94;5083412;28;20272;-72
2023/09/15 10:09:13;;;;;;;7.13;2.90;;;;;;;20.03;59.54;100133.66;5083040;28;20036;-72
2023/09/15 10:11:39;;;;;;;6.72;2.30;;;;;;;20.15;59.73;100135.00;5082393;28;20036;-73
2023/09/15 10:14:06;;;;;;;10.43;3.03;;;;;;;20.20;59.46;100131.28;5081412;28;20036;-73
2023/09/15 10:16:32;;;;;;;5.75;2.40;;;;;;;20.32;58.73;100122.34;5082868;28;20036;-73
2023/09/15 10:18:59;;;;;;;7.03;2.60;;;;;;;20.36;58.94;100121.38;5083200;28;20032;-72
2023/09/15 10:21:26;;;;;;;5.18;2.45;;;;;;;20.38;58.72;100121.84;5082976;28;20322;-73
2023/09/15 10:24:08;;;;;;;5.63;2.17;;;;;;;20.48;58.20;100131.00;5082427;28;20059;-81
2023/09/15 10:26:34;;;;;;;6.55;2.45;;;;;;;20.49;57.58;100121.56;5083953;28;20060;-88
2023/09/15 10:29:01;;;;;;;10.10;3.05;;;;;;;20.49;57.97;100122.38;5088865;28;20489;-81
2023/09/15 10:31:29;;;;;;;7.43;2.80;;;;;;;20.56;58.52;100118.31;5088382;28;20054;-85
2023/09/15 10:33:54;;;;;;;6.38;2.35;;;;;;;20.58;58.19;100114.09;5088157;28;20031;-84
2023/09/15 10:36:21;;;;;;;5.70;2.28;;;;;;;20.60;58.37;100114.59;5087278;28;20650;-84
2023/09/15 10:38:47;;;;;;;5.25;2.45;;;;;;;20.64;58.11;100110.00;5088637;28;20060;-83
2023/09/15 10:41:25;;;;;;;9.50;2.42;;;;;;;20.74;58.58;100102.53;5089305;28;20040;-82
2023/09/15 10:43:50;;;;;;;6.05;2.45;;;;;;;20.73;57.81;100101.69;5084317;28;20503;-84
2023/09/15 10:46:15;;;;;;;5.70;2.05;;;;;;;20.77;57.63;100099.91;5084109;28;20118;-83
2023/09/15 10:48:47;;;;;;;6.80;2.60;;;;;;;20.86;57.70;100099.09;5083179;28;20375;-83
2023/09/15 10:51:16;;;;;;;7.85;2.90;;;;;;;20.98;57.87;100098.44;5083463;28;20359;-83
2023/09/15 10:53:42;;;;;;;18.08;3.35;;;;;;;21.01;57.36;100100.59;5083511;28;20177;-84
2023/09/15 10:56:08;;;;;;;8.02;2.65;;;;;;;21.04;57.15;100090.78;5087590;28;20123;-84
2023/09/15 10:58:35;;;;;;;9.23;2.83;;;;;;;21.07;57.51;100079.84;5087304;28;20594;-84
2023/09/15 11:01:01;;;;;;;5.10;2.03;;;;;;;21.06;57.26;100083.78;5086853;28;20032;-83
2023/09/15 11:03:28;;;;;;;8.10;2.33;;;;;;;21.13;57.43;100088.00;5086973;28;20036;-85
2023/09/15 11:05:55;;;;;;;5.30;2.42;;;;;;;21.18;57.54;100087.81;5087192;28;20396;-84
2023/09/15 11:08:22;;;;;;;5.10;2.25;;;;;;;21.20;57.19;100083.59;5087063;28;20536;-84
2023/09/15 11:10:48;;;;;;;6.13;2.15;;;;;;;21.24;57.15;100075.41;5086975;28;20028;-81
2023/09/15 11:13:13;;;;;;;5.40;1.75;;;;;;;21.32;57.19;100068.22;5086890;28;20043;-82
2023/09/15 11:15:39;;;;;;;5.85;1.98;;;;;;;21.36;56.69;100065.63;5085988;28;20028;-81
2023/09/15 11:18:04;;;;;;;8.17;2.07;;;;;;;21.48;56.47;100062.94;5086148;28;20040;-81
2023/09/15 11:20:30;;;;;;;9.40;2.72;;;;;;;21.61;56.37;100057.50;5086423;28;20248;-81